首页
METAR-TAF:

METAR-TAF

机场 :

费耶特维尔, 阿肯色州, 美国

纬度: 36-00-37N, 经度: 094-10-04W, 海拔: 381米

当前天气观测

该预报发布于22分钟前的09:53 UTC
风速7节,风向南转南东
温度 17°C
湿度 48%
气压 1014 hPa
能見度: 16.1公里
天空无云

METAR: KFYV 020953Z AUTO 15007KT 10SM CLR 17/06 A2995 RMK AO2 SLP134 T01670061

时间: 05:15 (10:15 UTC)

预报

该预报发布于4小时和55分钟前的05:20 UTC
预报有效从02日的 06点(UTC)到 03日的 06点(UTC)
风速6节,风向南转南东,有时为21节阵风
能見度: 10公里
天空无云
从 02日的 1200点(UTC)
风速10节,风向南转南东,有时为20节阵风
能見度: 10公里
多云层高于10000英尺
从 02日的 1600点(UTC)
风速17节,风向南转南东,有时为26节阵风
能見度: 10公里
多云层高于10000英尺
几率 30%
从 02日的 18点(UTC)到 02日的 22点(UTC)
多云层高于5000英尺
小阵雨
从 03日的 0200点(UTC)
风速13节,风向南转南东
能見度: 10公里
多云层高于4000英尺

TAF: KFYV 020520Z 0206/0306 16006G21KT P6SM SKC WS020/17040KT FM021200 16010G20KT P6SM BKN100 FM021600 16017G26KT P6SM BKN100 PROB30 0218/0222 -SHRA BKN050 FM030200 16013KT P6SM BKN040

超过4000个机场的气象观测和天气预报(METAR&TAF报告)。

可查询的气象台以黄色和红色小点在地图上表示。

将鼠标移到小点上方,可查看气象台名称。

然后点击查看天气观测和预报。

如需切换地图:点击带黑十字的绿色按钮放大地图;点击带横线的绿色按钮缩小地图;或者点击绿色箭头查看邻近地区的地图。


METAR-TAF: